Time;durP1;ratioP1;P1;durP2;ratioP2;P2;SDS_P1;SDS_P2;PMS_P1;PMS_P2;Temp;Humidity;BMP_temperature;BMP_pressure;BME280_temperature;BME280_humidity;BME280_pressure;Samples;Min_cycle;Max_cycle;Signal;HPM_P1;HPM_P2
2023/07/13 00:00:38;;;;;;;3.73;1.23;;;18.90;95.40;;;;;;5032944;28;20174;-74
2023/07/13 00:03:04;;;;;;;1.40;0.60;;;18.80;95.60;;;;;;5030436;28;20224;-74
2023/07/13 00:05:30;;;;;;;2.17;1.20;;;18.70;96.10;;;;;;5032964;28;20244;-74
2023/07/13 00:07:56;;;;;;;1.60;0.70;;;18.60;96.70;;;;;;5035128;28;20437;-74
2023/07/13 00:10:22;;;;;;;1.87;0.77;;;18.40;97.10;;;;;;5028630;28;20194;-74
2023/07/13 00:12:48;;;;;;;1.67;0.50;;;18.30;97.60;;;;;;5028368;28;20694;-74
2023/07/13 00:15:22;;;;;;;2.63;0.80;;;18.20;97.80;;;;;;5030662;28;20712;-74
2023/07/13 00:17:54;;;;;;;1.30;0.60;;;18.10;98.20;;;;;;5032483;28;20433;-74
2023/07/13 00:20:22;;;;;;;2.57;0.90;;;18.00;98.30;;;;;;5029520;28;20437;-74
2023/07/13 00:22:49;;;;;;;1.50;0.63;;;18.00;98.30;;;;;;5032803;28;20433;-74
2023/07/13 00:25:15;;;;;;;1.50;0.60;;;17.90;98.40;;;;;;5031846;28;20475;-74
2023/07/13 00:27:43;;;;;;;1.37;0.57;;;17.80;98.40;;;;;;5032279;28;20433;-74
2023/07/13 00:30:10;;;;;;;1.50;0.77;;;17.70;98.40;;;;;;5032442;28;20773;-73
2023/07/13 00:32:35;;;;;;;2.33;0.87;;;17.60;98.40;;;;;;5030849;28;20440;-74
2023/07/13 00:35:03;;;;;;;3.00;0.70;;;17.70;98.30;;;;;;5032309;28;20460;-74
2023/07/13 00:37:28;;;;;;;2.23;0.90;;;17.60;98.20;;;;;;5031783;28;20195;-73
2023/07/13 00:39:54;;;;;;;2.20;0.70;;;17.70;98.10;;;;;;5019908;28;20491;-74
2023/07/13 00:42:19;;;;;;;1.73;0.77;;;17.60;97.90;;;;;;5031636;28;20668;-74
2023/07/13 00:45:07;;;;;;;1.90;0.70;;;17.60;97.60;;;;;;5030609;28;20713;-74
2023/07/13 00:47:32;;;;;;;24.67;1.10;;;17.60;97.40;;;;;;5031652;28;20270;-74
2023/07/13 00:49:58;;;;;;;1.93;0.80;;;17.60;97.70;;;;;;5025416;28;20538;-74
2023/07/13 00:52:24;;;;;;;2.10;1.00;;;17.60;97.30;;;;;;5030720;28;20197;-74
2023/07/13 00:54:50;;;;;;;2.07;0.70;;;17.70;97.80;;;;;;5030403;28;20465;-74
2023/07/13 00:57:19;;;;;;;2.90;0.90;;;17.70;97.70;;;;;;5031831;28;20182;-74
2023/07/13 00:59:51;;;;;;;2.83;0.87;;;17.70;98.20;;;;;;5028184;28;20182;-74
2023/07/13 01:02:18;;;;;;;2.77;1.00;;;17.60;97.00;;;;;;5027452;28;20537;-74
2023/07/13 01:04:43;;;;;;;2.07;0.80;;;17.70;97.00;;;;;;5030601;28;20425;-74
2023/07/13 01:07:10;;;;;;;2.60;0.90;;;17.70;97.40;;;;;;5034371;28;20861;-74
2023/07/13 01:09:36;;;;;;;1.80;0.80;;;17.80;97.20;;;;;;5032359;28;20260;-74
2023/07/13 01:12:02;;;;;;;1.50;0.73;;;17.80;97.10;;;;;;5031935;28;20548;-74
2023/07/13 01:14:28;;;;;;;5.73;1.90;;;17.80;97.00;;;;;;5030827;28;20299;-74
2023/07/13 01:16:54;;;;;;;1.60;0.70;;;17.80;97.40;;;;;;5027318;28;20484;-74
2023/07/13 01:19:40;;;;;;;2.63;0.77;;;17.80;97.20;;;;;;5029682;28;20190;-74
2023/07/13 01:22:16;;;;;;;2.50;1.03;;;17.70;97.60;;;;;;5028648;28;20429;-74
2023/07/13 01:24:44;;;;;;;1.50;0.70;;;17.70;97.30;;;;;;5031285;28;20423;-74
2023/07/13 01:27:12;;;;;;;1.67;0.60;;;17.60;97.60;;;;;;5029846;28;20433;-74
2023/07/13 01:29:41;;;;;;;2.90;1.13;;;17.60;97.70;;;;;;5029169;28;20424;-74
2023/07/13 01:32:09;;;;;;;2.00;0.97;;;17.50;97.80;;;;;;5030021;28;20417;-74
2023/07/13 01:34:34;;;;;;;3.10;1.17;;;17.50;98.30;;;;;;5030934;28;20465;-74
2023/07/13 01:37:00;;;;;;;2.03;0.80;;;17.40;98.70;;;;;;5030239;28;20433;-74
2023/07/13 01:39:25;;;;;;;3.93;1.07;;;17.30;98.80;;;;;;5026611;28;20195;-74
2023/07/13 01:41:51;;;;;;;3.30;0.90;;;17.20;98.80;;;;;;5030890;28;20171;-74
2023/07/13 01:44:17;;;;;;;1.70;1.00;;;17.20;98.90;;;;;;5030619;28;20189;-74
2023/07/13 01:46:42;;;;;;;2.10;0.90;;;17.10;99.00;;;;;;5036771;28;20334;-74
2023/07/13 01:49:08;;;;;;;1.80;0.90;;;17.10;99.20;;;;;;5024767;28;20195;-74
2023/07/13 01:51:33;;;;;;;1.87;0.90;;;17.10;99.00;;;;;;5020724;28;20179;-74
2023/07/13 01:53:59;;;;;;;2.20;0.80;;;17.10;98.90;;;;;;5016240;28;20187;-74
2023/07/13 01:56:24;;;;;;;2.33;1.00;;;17.10;99.10;;;;;;5017634;28;20680;-74
2023/07/13 01:58:51;;;;;;;2.90;1.37;;;17.00;98.80;;;;;;5028620;28;20182;-74
2023/07/13 02:01:17;;;;;;;1.30;0.63;;;17.00;98.70;;;;;;5027974;28;20186;-74
2023/07/13 02:03:43;;;;;;;2.30;0.73;;;17.20;98.80;;;;;;5030108;28;20921;-74
2023/07/13 02:06:08;;;;;;;10.80;1.33;;;17.00;97.30;;;;;;5029922;28;20217;-74
2023/07/13 02:08:34;;;;;;;1.80;0.73;;;17.10;97.60;;;;;;5030112;28;20369;-74
2023/07/13 02:11:02;;;;;;;4.30;0.90;;;17.10;98.20;;;;;;5031023;28;20181;-74
2023/07/13 02:13:27;;;;;;;1.30;0.50;;;17.00;98.30;;;;;;5028385;28;20665;-74
2023/07/13 02:15:53;;;;;;;3.03;0.90;;;17.00;98.20;;;;;;5021467;28;20469;-74
2023/07/13 02:18:18;;;;;;;3.07;0.87;;;17.10;98.30;;;;;;5029274;28;20491;-74
2023/07/13 02:20:44;;;;;;;10.43;1.03;;;17.00;98.30;;;;;;5025082;28;20699;-74
2023/07/13 02:23:10;;;;;;;2.17;0.83;;;16.80;98.20;;;;;;5029386;28;20260;-74
2023/07/13 02:25:36;;;;;;;1.97;0.90;;;16.80;98.90;;;;;;5022585;28;20222;-74
2023/07/13 02:28:01;;;;;;;3.43;1.13;;;16.60;99.60;;;;;;5028234;28;20210;-74
2023/07/13 02:30:29;;;;;;;2.33;1.07;;;16.40;99.90;;;;;;5029522;28;20193;-74
2023/07/13 02:32:55;;;;;;;1.60;0.77;;;16.40;99.90;;;;;;5025462;28;20194;-74
2023/07/13 02:35:21;;;;;;;5.50;0.90;;;16.40;99.90;;;;;;5030968;28;20560;-74
2023/07/13 02:37:47;;;;;;;3.10;0.97;;;16.30;99.90;;;;;;5014956;28;20517;-74
2023/07/13 02:40:13;;;;;;;2.40;1.00;;;16.10;99.90;;;;;;5022144;28;20223;-74
2023/07/13 02:42:39;;;;;;;3.60;1.30;;;16.10;99.90;;;;;;5024867;28;20631;-74
2023/07/13 02:45:05;;;;;;;2.33;0.80;;;16.00;99.90;;;;;;5029628;28;20205;-74
2023/07/13 02:47:32;;;;;;;1.70;0.60;;;15.90;99.90;;;;;;5029852;28;20697;-74
2023/07/13 02:49:57;;;;;;;5.83;0.83;;;15.90;99.90;;;;;;5033618;28;21019;-74
2023/07/13 02:52:23;;;;;;;2.77;1.10;;;15.90;99.90;;;;;;5029334;28;20440;-74
2023/07/13 02:54:49;;;;;;;2.10;0.97;;;15.90;99.90;;;;;;5034784;28;20206;-74
2023/07/13 02:57:14;;;;;;;1.80;0.77;;;15.90;99.90;;;;;;5032630;28;20269;-74
2023/07/13 02:59:40;;;;;;;2.13;0.90;;;15.80;99.90;;;;;;5034269;28;20178;-74
2023/07/13 03:02:05;;;;;;;2.90;0.90;;;15.80;99.90;;;;;;5033711;28;20206;-73
2023/07/13 03:04:31;;;;;;;1.93;0.87;;;15.80;99.90;;;;;;5034006;28;20190;-73
2023/07/13 03:06:57;;;;;;;1.57;0.70;;;15.80;99.90;;;;;;5033749;28;20206;-73
2023/07/13 03:09:24;;;;;;;3.00;0.80;;;15.80;99.90;;;;;;5034344;28;20178;-74
2023/07/13 03:11:53;;;;;;;2.43;0.93;;;15.90;99.90;;;;;;5037511;28;20612;-74
2023/07/13 03:14:18;;;;;;;2.40;0.90;;;15.80;99.90;;;;;;5032316;28;20496;-74
2023/07/13 03:16:44;;;;;;;2.20;1.00;;;15.80;99.90;;;;;;5032258;28;20508;-74
2023/07/13 03:19:09;;;;;;;1.60;0.80;;;15.90;99.90;;;;;;5034116;28;20178;-74
2023/07/13 03:21:35;;;;;;;4.47;1.30;;;15.90;99.90;;;;;;5030203;28;20583;-74
2023/07/13 03:24:01;;;;;;;1.73;1.00;;;15.90;99.90;;;;;;5033704;28;20182;-74
2023/07/13 03:26:26;;;;;;;1.50;0.80;;;15.80;99.90;;;;;;5029510;28;20762;-74
2023/07/13 03:28:52;;;;;;;2.50;1.07;;;15.90;99.90;;;;;;5033949;28;20598;-74
2023/07/13 03:31:20;;;;;;;2.00;0.83;;;15.80;99.90;;;;;;5032684;28;20268;-74
2023/07/13 03:33:46;;;;;;;1.50;0.80;;;15.90;99.90;;;;;;5025906;28;20199;-74
2023/07/13 03:36:25;;;;;;;1.93;0.60;;;15.90;99.90;;;;;;5024890;28;20465;-74
2023/07/13 03:38:57;;;;;;;1.60;0.83;;;15.80;99.90;;;;;;5033790;28;20420;-74
2023/07/13 03:41:23;;;;;;;1.40;0.70;;;15.80;99.90;;;;;;5034050;28;20881;-74
2023/07/13 03:43:49;;;;;;;25.93;1.17;;;15.80;99.90;;;;;;5035807;28;20943;-74
2023/07/13 03:46:16;;;;;;;4.20;1.20;;;15.80;99.90;;;;;;5032984;28;20221;-74
2023/07/13 03:48:44;;;;;;;1.90;1.10;;;15.80;99.90;;;;;;5028385;28;20190;-74
2023/07/13 03:51:10;;;;;;;6.73;1.30;;;15.90;99.90;;;;;;5035225;28;20424;-74
2023/07/13 03:53:41;;;;;;;3.47;1.23;;;15.90;99.90;;;;;;5035578;28;20452;-74
2023/07/13 03:56:08;;;;;;;1.70;0.93;;;15.90;99.90;;;;;;5032870;28;20521;-75
2023/07/13 03:58:39;;;;;;;1.80;1.00;;;15.90;99.90;;;;;;5023811;28;20429;-74
2023/07/13 04:01:07;;;;;;;2.30;0.90;;;15.90;99.90;;;;;;5028430;28;20425;-74
2023/07/13 04:03:33;;;;;;;1.50;0.80;;;16.00;99.90;;;;;;5032019;28;20771;-74
2023/07/13 04:06:00;;;;;;;2.20;0.90;;;16.10;99.90;;;;;;5024454;28;20444;-74
2023/07/13 04:08:28;;;;;;;2.63;0.83;;;16.10;99.90;;;;;;5033080;28;20496;-74
2023/07/13 04:10:54;;;;;;;2.50;1.20;;;16.10;99.90;;;;;;5032784;28;20429;-74
2023/07/13 04:13:19;;;;;;;2.17;1.10;;;16.20;99.90;;;;;;5032069;28;20531;-74
2023/07/13 04:15:45;;;;;;;2.73;1.13;;;16.30;99.90;;;;;;5029979;28;20457;-74
2023/07/13 04:18:11;;;;;;;3.77;1.40;;;16.30;99.90;;;;;;5032701;28;20181;-74
2023/07/13 04:20:36;;;;;;;5.63;0.90;;;16.20;99.90;;;;;;5030916;28;20710;-74
2023/07/13 04:23:02;;;;;;;2.80;1.13;;;16.20;99.90;;;;;;5032283;28;20229;-74
2023/07/13 04:25:27;;;;;;;4.87;1.53;;;16.20;99.90;;;;;;5035227;28;20294;-74
2023/07/13 04:27:54;;;;;;;2.67;1.10;;;16.20;99.90;;;;;;5025460;28;20606;-74
2023/07/13 04:30:20;;;;;;;4.07;1.40;;;16.20;99.90;;;;;;5031220;28;20237;-74
2023/07/13 04:32:46;;;;;;;1.87;1.00;;;16.10;99.90;;;;;;5030076;28;20548;-74
2023/07/13 04:35:13;;;;;;;2.30;1.43;;;16.10;99.90;;;;;;5031913;28;20464;-74
2023/07/13 04:37:39;;;;;;;3.00;1.03;;;16.00;99.90;;;;;;5018644;28;20544;-74
2023/07/13 04:40:05;;;;;;;3.40;1.20;;;16.10;99.90;;;;;;5021607;28;20493;-74
2023/07/13 04:42:31;;;;;;;1.80;1.00;;;16.10;99.90;;;;;;5025074;28;20186;-74
2023/07/13 04:44:57;;;;;;;2.53;1.30;;;16.00;99.90;;;;;;5029265;28;20430;-74
2023/07/13 04:47:23;;;;;;;2.60;0.90;;;16.00;99.90;;;;;;5028365;28;20186;-74
2023/07/13 04:49:48;;;;;;;3.03;1.50;;;15.90;99.90;;;;;;5026218;28;20537;-74
2023/07/13 04:52:14;;;;;;;1.60;0.80;;;15.90;99.90;;;;;;5030871;28;20261;-74
2023/07/13 04:54:39;;;;;;;7.33;1.10;;;15.90;99.90;;;;;;5032131;28;20820;-74
2023/07/13 04:57:06;;;;;;;2.67;1.13;;;16.00;99.90;;;;;;5030160;28;20185;-73
2023/07/13 04:59:32;;;;;;;2.20;1.23;;;16.10;99.90;;;;;;5031389;28;20178;-73
2023/07/13 05:01:58;;;;;;;1.63;0.80;;;16.20;99.90;;;;;;5030718;28;20495;-73
2023/07/13 05:04:24;;;;;;;1.47;0.80;;;16.30;99.90;;;;;;5031714;28;20878;-73
2023/07/13 05:06:49;;;;;;;1.80;0.80;;;16.30;99.90;;;;;;5030445;28;20178;-73
2023/07/13 05:09:15;;;;;;;3.83;0.97;;;16.40;99.90;;;;;;5033351;28;20194;-73
2023/07/13 05:11:41;;;;;;;2.23;0.83;;;16.50;99.90;;;;;;5030307;28;20526;-73
2023/07/13 05:14:06;;;;;;;4.07;1.10;;;16.60;99.90;;;;;;5028271;28;20265;-73
2023/07/13 05:16:32;;;;;;;1.90;0.97;;;16.70;99.90;;;;;;5023768;28;20524;-73
2023/07/13 05:18:58;;;;;;;5.30;1.10;;;16.70;99.90;;;;;;5030555;28;20186;-73
2023/07/13 05:21:23;;;;;;;1.57;0.80;;;16.80;99.90;;;;;;5026239;28;20888;-73
2023/07/13 05:23:50;;;;;;;2.97;1.20;;;16.80;99.90;;;;;;5028632;28;20179;-73
2023/07/13 05:26:16;;;;;;;1.77;0.80;;;16.80;99.90;;;;;;5028562;28;20190;-73
2023/07/13 05:28:42;;;;;;;2.00;1.00;;;16.90;99.90;;;;;;5029523;28;20499;-73
2023/07/13 05:31:09;;;;;;;2.80;1.00;;;16.80;99.90;;;;;;5013935;28;20663;-73
2023/07/13 05:33:34;;;;;;;2.23;0.97;;;16.90;99.90;;;;;;5025945;28;20444;-73
2023/07/13 05:36:00;;;;;;;1.90;0.83;;;16.90;99.90;;;;;;5029941;28;20467;-73
2023/07/13 05:38:26;;;;;;;2.03;1.07;;;17.00;99.90;;;;;;5023358;28;20233;-73
2023/07/13 05:40:55;;;;;;;5.53;1.27;;;17.10;99.90;;;;;;5025930;28;20245;-73
2023/07/13 05:43:21;;;;;;;2.33;1.10;;;17.10;99.90;;;;;;5030343;28;20479;-73
2023/07/13 05:45:46;;;;;;;2.50;0.90;;;17.20;99.90;;;;;;5031166;28;20432;-73
2023/07/13 05:48:12;;;;;;;2.70;0.90;;;17.20;99.90;;;;;;5030759;28;20452;-74
2023/07/13 05:50:37;;;;;;;1.97;0.90;;;17.20;99.90;;;;;;5030945;28;20213;-73
2023/07/13 05:53:04;;;;;;;10.60;1.50;;;17.20;99.90;;;;;;5029132;28;20210;-73
2023/07/13 05:55:29;;;;;;;5.97;1.20;;;17.30;99.90;;;;;;5030437;28;20213;-73
2023/07/13 05:57:55;;;;;;;3.10;1.00;;;17.30;99.90;;;;;;5033625;28;21083;-73
2023/07/13 06:00:21;;;;;;;4.37;1.40;;;17.30;99.90;;;;;;5029686;28;20193;-74
2023/07/13 06:02:46;;;;;;;1.93;0.83;;;17.40;99.90;;;;;;5030283;28;20649;-74
2023/07/13 06:05:12;;;;;;;3.67;1.30;;;17.40;99.90;;;;;;5030927;28;20186;-73
2023/07/13 06:07:38;;;;;;;1.60;0.90;;;17.50;99.90;;;;;;5029146;28;20655;-73
2023/07/13 06:10:04;;;;;;;1.70;0.80;;;17.50;99.90;;;;;;5029710;28;20186;-73
2023/07/13 06:12:29;;;;;;;2.00;1.00;;;17.50;99.90;;;;;;5030497;28;20188;-73
2023/07/13 06:14:55;;;;;;;2.03;1.07;;;17.60;99.90;;;;;;5030491;28;20210;-74
2023/07/13 06:17:21;;;;;;;2.33;1.23;;;17.60;99.90;;;;;;5030477;28;20189;-73
2023/07/13 06:19:46;;;;;;;1.30;0.60;;;17.70;99.90;;;;;;5027844;28;20206;-73
2023/07/13 06:22:12;;;;;;;4.30;1.20;;;17.80;99.00;;;;;;5021393;28;20179;-73
2023/07/13 06:24:38;;;;;;;1.43;0.60;;;18.00;97.90;;;;;;5033492;28;20580;-73
2023/07/13 06:27:03;;;;;;;4.00;1.40;;;18.10;97.40;;;;;;5034252;28;20202;-73
2023/07/13 06:29:29;;;;;;;2.33;1.00;;;18.30;95.10;;;;;;5032491;28;20217;-73
2023/07/13 06:31:55;;;;;;;2.67;0.97;;;18.50;94.80;;;;;;5034470;28;20178;-73
2023/07/13 06:34:20;;;;;;;4.70;1.47;;;18.70;93.30;;;;;;5033627;28;20237;-73
2023/07/13 06:36:46;;;;;;;5.00;1.20;;;18.70;92.80;;;;;;5029215;28;20871;-73
2023/07/13 06:39:11;;;;;;;1.50;0.70;;;18.80;92.80;;;;;;5028026;28;20225;-73
2023/07/13 06:41:38;;;;;;;2.43;1.03;;;18.80;92.90;;;;;;5032407;28;20205;-73
2023/07/13 06:44:04;;;;;;;1.83;1.03;;;18.90;92.20;;;;;;5028149;28;20171;-73
2023/07/13 06:46:30;;;;;;;2.10;0.70;;;19.00;92.00;;;;;;5033873;28;20451;-73
2023/07/13 06:48:56;;;;;;;1.90;1.00;;;19.00;92.00;;;;;;5033466;28;20835;-73
2023/07/13 06:51:22;;;;;;;5.83;1.13;;;19.00;92.70;;;;;;5028249;28;20186;-71
2023/07/13 06:53:47;;;;;;;2.77;1.00;;;18.90;90.90;;;;;;5033114;28;20279;-71
2023/07/13 06:56:13;;;;;;;2.33;1.20;;;18.80;91.00;;;;;;5033515;28;20206;-71
2023/07/13 06:58:39;;;;;;;6.17;2.23;;;18.80;91.80;;;;;;5031553;28;20182;-71
2023/07/13 07:01:05;;;;;;;2.23;1.33;;;18.90;91.90;;;;;;5030063;28;20437;-71
2023/07/13 07:03:30;;;;;;;1.90;1.20;;;19.00;92.20;;;;;;5028396;28;20182;-71
2023/07/13 07:06:17;;;;;;;1.70;0.90;;;19.20;92.30;;;;;;5031437;28;20182;-71
2023/07/13 07:08:43;;;;;;;1.30;0.50;;;19.40;91.40;;;;;;5027379;28;20178;-71
2023/07/13 07:11:14;;;;;;;1.80;0.83;;;19.60;90.80;;;;;;5031519;28;20421;-71
2023/07/13 07:13:40;;;;;;;2.90;0.83;;;19.70;90.50;;;;;;5029290;28;20178;-71
2023/07/13 07:16:06;;;;;;;4.07;1.27;;;19.80;89.10;;;;;;5029411;28;20467;-71
2023/07/13 07:18:32;;;;;;;1.70;0.73;;;20.00;88.40;;;;;;5027959;28;20191;-71
2023/07/13 07:20:57;;;;;;;1.60;0.97;;;20.00;89.30;;;;;;5025496;28;20452;-71
2023/07/13 07:23:23;;;;;;;1.73;1.00;;;20.10;88.10;;;;;;5031172;28;20624;-72
2023/07/13 07:25:49;;;;;;;1.40;0.73;;;20.20;86.20;;;;;;5025123;28;20191;-72
2023/07/13 07:28:17;;;;;;;2.00;0.80;;;20.30;85.60;;;;;;5025598;28;20191;-71
2023/07/13 07:30:44;;;;;;;2.33;0.70;;;20.40;85.20;;;;;;5030998;28;20192;-71
2023/07/13 07:33:10;;;;;;;1.40;0.70;;;20.70;85.50;;;;;;5026083;28;20922;-73
2023/07/13 07:35:36;;;;;;;4.67;0.87;;;20.90;81.80;;;;;;5031161;28;20460;-72
2023/07/13 07:38:02;;;;;;;2.03;0.90;;;21.00;76.80;;;;;;5028205;28;20174;-72
2023/07/13 07:40:27;;;;;;;2.90;0.50;;;21.20;78.00;;;;;;5031630;28;20178;-73
2023/07/13 07:42:53;;;;;;;1.70;0.80;;;21.70;78.10;;;;;;5026491;28;20181;-73
2023/07/13 07:45:19;;;;;;;4.80;1.10;;;22.00;78.60;;;;;;5031154;28;20243;-72
2023/07/13 07:47:45;;;;;;;4.17;0.93;;;22.60;74.70;;;;;;5032907;28;20182;-72
2023/07/13 07:50:11;;;;;;;1.60;0.70;;;23.70;75.00;;;;;;5032070;28;21094;-72
2023/07/13 07:52:36;;;;;;;3.23;0.97;;;25.00;70.60;;;;;;5032280;28;20186;-73
2023/07/13 07:55:03;;;;;;;2.03;0.88;;;25.50;66.80;;;;;;5031340;28;20217;-73
2023/07/13 07:57:28;;;;;;;2.78;0.98;;;26.00;63.30;;;;;;5037374;28;20193;-73
2023/07/13 07:59:54;;;;;;;2.35;0.80;;;26.50;61.60;;;;;;5026890;28;20186;-72
2023/07/13 08:02:20;;;;;;;1.67;0.80;;;26.00;64.20;;;;;;5026608;28;20327;-72
2023/07/13 08:04:45;;;;;;;2.78;1.13;;;26.50;62.30;;;;;;5033519;28;20182;-72
2023/07/13 08:07:11;;;;;;;3.60;0.98;;;26.30;63.40;;;;;;5030336;28;20837;-72
2023/07/13 08:09:36;;;;;;;2.75;0.95;;;26.90;63.30;;;;;;5031156;28;20210;-72
2023/07/13 08:12:02;;;;;;;2.20;0.98;;;27.20;62.10;;;;;;5029095;28;20257;-72
2023/07/13 08:14:28;;;;;;;3.75;0.73;;;27.50;61.10;;;;;;5030428;28;20479;-72
2023/07/13 08:16:53;;;;;;;1.98;1.13;;;27.60;60.70;;;;;;5030890;28;20182;-72
2023/07/13 08:19:19;;;;;;;5.00;1.58;;;28.30;58.00;;;;;;5030103;28;20182;-72
2023/07/13 08:21:45;;;;;;;1.60;0.63;;;28.30;58.80;;;;;;5029860;28;20178;-70
2023/07/13 08:24:10;;;;;;;1.92;1.00;;;28.00;58.80;;;;;;5030137;28;20239;-70
2023/07/13 08:26:36;;;;;;;2.90;0.73;;;27.60;60.80;;;;;;5030794;28;20205;-69
2023/07/13 08:29:03;;;;;;;3.63;1.10;;;27.40;59.90;;;;;;5029907;28;20197;-70
2023/07/13 08:31:28;;;;;;;8.82;0.98;;;28.20;59.10;;;;;;5026623;28;20178;-70
2023/07/13 08:33:54;;;;;;;2.10;0.80;;;28.20;58.50;;;;;;5030772;28;20209;-70
2023/07/13 08:36:19;;;;;;;2.63;0.90;;;28.40;57.90;;;;;;5021690;28;20683;-69
2023/07/13 08:38:45;;;;;;;2.35;0.90;;;28.80;56.90;;;;;;5026160;28;20189;-70
2023/07/13 08:41:14;;;;;;;5.43;1.08;;;29.10;56.50;;;;;;5027613;28;20225;-70
2023/07/13 08:43:40;;;;;;;2.47;0.93;;;28.90;56.20;;;;;;5023260;28;20218;-72
2023/07/13 08:46:13;;;;;;;2.80;1.13;;;28.60;56.30;;;;;;5025114;28;20312;-72
2023/07/13 08:48:44;;;;;;;1.73;0.68;;;28.80;55.80;;;;;;5028373;28;20265;-72
2023/07/13 08:51:12;;;;;;;14.75;1.15;;;28.90;56.50;;;;;;5029226;28;20190;-71
2023/07/13 08:53:42;;;;;;;3.63;1.17;;;28.80;56.50;;;;;;5029570;28;20248;-70
2023/07/13 08:56:17;;;;;;;3.38;1.30;;;28.60;55.30;;;;;;5028073;28;20210;-72
2023/07/13 08:58:44;;;;;;;5.82;1.02;;;27.50;56.50;;;;;;5029995;28;20505;-70
2023/07/13 09:01:41;;;;;;;3.78;0.90;;;26.80;58.20;;;;;;5029874;28;20174;-71
2023/07/13 09:04:14;;;;;;;1.80;0.90;;;26.40;57.30;;;;;;5009818;28;20198;-73
2023/07/13 09:06:48;;;;;;;2.75;1.02;;;26.50;58.60;;;;;;5033480;28;20471;-72
2023/07/13 09:09:29;;;;;;;2.45;0.80;;;27.00;55.20;;;;;;5032754;28;20678;-73
2023/07/13 09:12:02;;;;;;;1.90;0.90;;;27.20;56.60;;;;;;5016897;28;20783;-72
2023/07/13 09:14:51;;;;;;;8.40;1.45;;;27.60;54.70;;;;;;5029235;28;20706;-73
2023/07/13 09:17:27;;;;;;;1.88;0.93;;;27.80;55.20;;;;;;5030390;28;20178;-73
2023/07/13 09:20:03;;;;;;;2.17;0.80;;;28.40;54.30;;;;;;5030747;28;20178;-72
2023/07/13 09:22:33;;;;;;;5.18;1.02;;;28.20;54.60;;;;;;5030451;28;20170;-72
2023/07/13 09:24:59;;;;;;;2.65;0.98;;;28.10;55.50;;;;;;5031290;28;20277;-72
2023/07/13 09:27:38;;;;;;;1.98;0.77;;;28.20;55.40;;;;;;5031502;28;21054;-74
2023/07/13 09:30:25;;;;;;;2.80;0.90;;;27.70;56.10;;;;;;5029941;28;20208;-73
2023/07/13 09:32:53;;;;;;;2.50;1.08;;;26.80;57.80;;;;;;5028193;28;20221;-73
2023/07/13 09:35:26;;;;;;;1.95;0.90;;;27.00;56.40;;;;;;5029154;28;20205;-72
2023/07/13 09:37:56;;;;;;;1.90;1.00;;;27.10;56.50;;;;;;5027489;28;20181;-73
2023/07/13 09:40:50;;;;;;;3.00;0.80;;;27.90;55.40;;;;;;5029199;28;20265;-73
2023/07/13 09:43:16;;;;;;;4.57;1.23;;;27.80;57.20;;;;;;5015018;28;20223;-73
2023/07/13 09:45:45;;;;;;;2.25;1.23;;;27.90;56.20;;;;;;5027958;28;20596;-73
2023/07/13 09:48:14;;;;;;;2.00;1.00;;;27.90;55.50;;;;;;5028797;28;20280;-72
2023/07/13 09:50:41;;;;;;;2.72;0.75;;;27.90;56.00;;;;;;5025106;28;20182;-72
2023/07/13 09:53:13;;;;;;;2.35;1.13;;;27.50;56.50;;;;;;5027678;28;20201;-72
2023/07/13 09:55:40;;;;;;;2.17;1.00;;;27.30;56.10;;;;;;5028002;28;20280;-75
2023/07/13 09:58:15;;;;;;;2.35;1.00;;;26.80;57.80;;;;;;5029392;28;20186;-75
2023/07/13 10:00:43;;;;;;;2.50;0.80;;;25.70;59.40;;;;;;5016718;28;20179;-72
2023/07/13 10:03:22;;;;;;;2.72;1.30;;;25.70;60.30;;;;;;5030323;28;20597;-73
2023/07/13 10:05:50;;;;;;;3.27;1.00;;;26.00;59.60;;;;;;5029432;28;20487;-74
2023/07/13 10:08:28;;;;;;;2.20;0.73;;;25.90;59.40;;;;;;5032928;28;20217;-74
2023/07/13 10:11:08;;;;;;;2.33;1.10;;;25.70;58.60;;;;;;5024599;28;20622;-73
2023/07/13 10:13:36;;;;;;;11.40;1.17;;;25.30;60.10;;;;;;5030136;28;20200;-72
2023/07/13 10:16:05;;;;;;;2.50;1.10;;;25.40;60.90;;;;;;5026771;28;20235;-73
2023/07/13 10:18:43;;;;;;;2.43;0.80;;;25.60;60.90;;;;;;5029499;28;20178;-74
2023/07/13 10:21:15;;;;;;;2.13;1.00;;;25.80;59.50;;;;;;5029140;28;20255;-74
2023/07/13 10:23:43;;;;;;;1.40;0.50;;;25.50;60.30;;;;;;5030340;28;20562;-74
2023/07/13 10:26:23;;;;;;;1.70;0.90;;;25.20;60.90;;;;;;5029930;28;20913;-74
2023/07/13 10:28:55;;;;;;;1.60;0.73;;;25.00;60.60;;;;;;5018749;28;20865;-73
2023/07/13 10:31:21;;;;;;;1.63;0.63;;;24.60;62.50;;;;;;5026835;28;20441;-73
2023/07/13 10:33:47;;;;;;;2.30;1.20;;;24.80;63.50;;;;;;5022370;28;20450;-72
2023/07/13 10:36:31;;;;;;;2.03;0.67;;;24.70;62.80;;;;;;5016979;28;20468;-73
2023/07/13 10:39:01;;;;;;;1.90;0.97;;;24.60;61.90;;;;;;5023481;28;20503;-74
2023/07/13 10:41:29;;;;;;;4.73;1.03;;;24.60;63.50;;;;;;5025034;28;20479;-73
2023/07/13 10:43:57;;;;;;;3.27;1.17;;;24.40;62.60;;;;;;5028518;28;20508;-74
2023/07/13 10:46:29;;;;;;;2.00;0.93;;;24.40;62.50;;;;;;5019305;28;20971;-73
2023/07/13 10:48:58;;;;;;;2.47;0.90;;;24.50;61.10;;;;;;5028825;28;20751;-74
2023/07/13 10:51:26;;;;;;;11.60;1.00;;;24.50;63.00;;;;;;5027795;28;20897;-72
2023/07/13 10:54:18;;;;;;;6.63;1.03;;;24.50;61.40;;;;;;5027490;28;20477;-72
2023/07/13 10:56:45;;;;;;;1.87;0.80;;;24.30;62.50;;;;;;5028437;28;20465;-73
2023/07/13 10:59:25;;;;;;;6.13;1.77;;;24.60;60.90;;;;;;5029577;28;20425;-72
2023/07/13 11:01:54;;;;;;;1.80;0.80;;;24.60;62.20;;;;;;5029530;28;20417;-72
2023/07/13 11:04:21;;;;;;;1.93;0.67;;;24.70;62.20;;;;;;5029437;28;20482;-73
2023/07/13 11:06:50;;;;;;;7.90;1.27;;;24.90;62.40;;;;;;5030612;28;20515;-73
2023/07/13 11:09:21;;;;;;;2.90;1.10;;;25.20;59.40;;;;;;5032576;28;20424;-74
2023/07/13 11:11:48;;;;;;;2.10;0.90;;;25.30;61.70;;;;;;5032305;28;20413;-73
2023/07/13 11:14:54;;;;;;;2.27;0.90;;;25.30;61.20;;;;;;5032873;28;20916;-73
2023/07/13 11:17:49;;;;;;;2.70;0.93;;;25.40;59.80;;;;;;5021964;28;20467;-72
2023/07/13 11:20:14;;;;;;;3.70;1.40;;;25.80;58.70;;;;;;5033492;28;20412;-73
2023/07/13 11:22:43;;;;;;;2.53;0.80;;;25.50;58.20;;;;;;5032350;28;20780;-72
2023/07/13 11:25:28;;;;;;;2.20;0.93;;;25.40;57.80;;;;;;5033497;28;20268;-72
2023/07/13 11:28:12;;;;;;;1.97;1.07;;;25.10;57.70;;;;;;5033274;28;20423;-72
2023/07/13 11:30:39;;;;;;;2.83;0.90;;;24.90;58.20;;;;;;5033063;28;20417;-73
2023/07/13 11:33:14;;;;;;;1.50;0.60;;;25.00;57.10;;;;;;5033188;28;20528;-71
2023/07/13 11:35:45;;;;;;;4.23;1.00;;;25.00;58.10;;;;;;5032900;28;20463;-72
2023/07/13 11:38:38;;;;;;;2.07;0.90;;;25.30;56.60;;;;;;5030189;28;20425;-72
2023/07/13 11:41:26;;;;;;;30.00;1.20;;;25.50;56.90;;;;;;5033101;28;20735;-72
2023/07/13 11:44:02;;;;;;;2.80;0.83;;;25.30;56.90;;;;;;5026019;28;20908;-72
2023/07/13 11:46:28;;;;;;;3.83;0.93;;;25.30;57.30;;;;;;5024145;28;20450;-73
2023/07/13 11:48:54;;;;;;;2.40;0.97;;;25.50;55.00;;;;;;5032924;28;20408;-75
2023/07/13 11:51:33;;;;;;;1.70;0.80;;;25.80;54.20;;;;;;5032215;28;20231;-72
2023/07/13 11:54:22;;;;;;;2.40;1.27;;;26.10;53.30;;;;;;5031478;28;20424;-74
2023/07/13 11:56:49;;;;;;;1.97;0.80;;;25.80;53.60;;;;;;5032093;28;20476;-74
2023/07/13 11:59:14;;;;;;;1.90;0.90;;;25.40;52.90;;;;;;5032634;28;20913;-73
2023/07/13 12:01:48;;;;;;;3.13;0.90;;;25.10;52.90;;;;;;5028988;28;20434;-73
2023/07/13 12:04:21;;;;;;;4.40;0.87;;;25.40;53.70;;;;;;5028284;28;20540;-73
2023/07/13 12:06:52;;;;;;;4.47;1.00;;;25.70;52.70;;;;;;5032892;28;20423;-73
2023/07/13 12:09:25;;;;;;;1.70;0.83;;;25.70;52.70;;;;;;5034580;28;20428;-73
2023/07/13 12:11:51;;;;;;;1.40;0.63;;;25.50;52.10;;;;;;5032031;28;20901;-73
2023/07/13 12:14:18;;;;;;;1.77;0.80;;;25.20;52.80;;;;;;5031964;28;20886;-73
2023/07/13 12:16:46;;;;;;;4.33;1.20;;;25.20;55.00;;;;;;5031840;28;20464;-73
2023/07/13 12:19:19;;;;;;;2.33;0.80;;;25.50;52.10;;;;;;5028743;28;20432;-73
2023/07/13 12:21:46;;;;;;;1.83;0.90;;;25.50;53.30;;;;;;5028817;28;20409;-73
2023/07/13 12:24:17;;;;;;;2.67;0.80;;;25.90;52.80;;;;;;5032418;28;20519;-74
2023/07/13 12:26:43;;;;;;;1.97;0.93;;;26.20;52.40;;;;;;5027066;28;20507;-72
2023/07/13 12:29:16;;;;;;;2.37;0.90;;;26.40;53.00;;;;;;5030761;28;20421;-72
2023/07/13 12:31:44;;;;;;;3.50;1.10;;;26.40;52.90;;;;;;5028342;28;20186;-72
2023/07/13 12:34:17;;;;;;;1.73;0.77;;;26.40;54.10;;;;;;5030710;28;20780;-72
2023/07/13 12:37:02;;;;;;;1.83;0.97;;;26.60;53.30;;;;;;5026329;28;20468;-73
2023/07/13 12:39:43;;;;;;;2.03;0.83;;;26.80;53.40;;;;;;5029569;28;21767;-73
2023/07/13 12:42:31;;;;;;;7.63;1.20;;;26.80;51.60;;;;;;5030301;28;20451;-73
2023/07/13 12:44:59;;;;;;;2.37;0.97;;;26.90;51.00;;;;;;5027611;28;20412;-73
2023/07/13 12:47:25;;;;;;;8.27;1.40;;;26.80;51.20;;;;;;5030218;28;20611;-72
2023/07/13 12:49:57;;;;;;;2.10;1.00;;;26.60;51.80;;;;;;5030628;28;20939;-74
2023/07/13 12:52:32;;;;;;;2.07;1.00;;;26.60;51.00;;;;;;5029396;28;20189;-73